sensor_id;sensor_type;location;lat;lon;timestamp;P1;durP1;ratioP1;P2;durP2;ratioP2
21305;SDS011;10812;51.838;5.838;2023-02-26T00:02:11;1.77;;;1.17;;
21305;SDS011;10812;51.838;5.838;2023-02-26T00:04:40;1.90;;;1.50;;
21305;SDS011;10812;51.838;5.838;2023-02-26T00:07:10;4.97;;;2.07;;
21305;SDS011;10812;51.838;5.838;2023-02-26T00:09:38;4.33;;;1.60;;
21305;SDS011;10812;51.838;5.838;2023-02-26T00:12:08;4.80;;;1.93;;
21305;SDS011;10812;51.838;5.838;2023-02-26T00:14:37;5.60;;;1.83;;
21305;SDS011;10812;51.838;5.838;2023-02-26T00:17:12;5.77;;;2.10;;
21305;SDS011;10812;51.838;5.838;2023-02-26T00:19:53;6.30;;;1.47;;
21305;SDS011;10812;51.838;5.838;2023-02-26T00:22:24;3.37;;;1.77;;
21305;SDS011;10812;51.838;5.838;2023-02-26T00:24:53;4.13;;;2.00;;
21305;SDS011;10812;51.838;5.838;2023-02-26T00:27:21;4.67;;;2.20;;
21305;SDS011;10812;51.838;5.838;2023-02-26T00:29:49;4.63;;;1.47;;
21305;SDS011;10812;51.838;5.838;2023-02-26T00:32:18;6.80;;;1.93;;
21305;SDS011;10812;51.838;5.838;2023-02-26T00:34:47;4.83;;;1.50;;
21305;SDS011;10812;51.838;5.838;2023-02-26T00:37:18;3.53;;;1.73;;
21305;SDS011;10812;51.838;5.838;2023-02-26T00:39:58;6.80;;;1.63;;
21305;SDS011;10812;51.838;5.838;2023-02-26T00:42:42;5.70;;;1.87;;
21305;SDS011;10812;51.838;5.838;2023-02-26T00:45:11;5.53;;;1.90;;
21305;SDS011;10812;51.838;5.838;2023-02-26T00:47:41;5.93;;;1.63;;
21305;SDS011;10812;51.838;5.838;2023-02-26T00:50:16;5.90;;;1.80;;
21305;SDS011;10812;51.838;5.838;2023-02-26T00:52:52;3.20;;;1.47;;
21305;SDS011;10812;51.838;5.838;2023-02-26T00:55:28;7.70;;;1.97;;
21305;SDS011;10812;51.838;5.838;2023-02-26T00:57:57;3.63;;;1.73;;
21305;SDS011;10812;51.838;5.838;2023-02-26T01:00:25;2.87;;;1.40;;
21305;SDS011;10812;51.838;5.838;2023-02-26T01:02:54;3.33;;;1.60;;
21305;SDS011;10812;51.838;5.838;2023-02-26T01:05:22;6.20;;;1.97;;
21305;SDS011;10812;51.838;5.838;2023-02-26T01:07:53;2.07;;;1.53;;
21305;SDS011;10812;51.838;5.838;2023-02-26T01:10:29;4.37;;;1.70;;
21305;SDS011;10812;51.838;5.838;2023-02-26T01:12:57;3.50;;;1.67;;
21305;SDS011;10812;51.838;5.838;2023-02-26T01:15:26;3.87;;;1.40;;
21305;SDS011;10812;51.838;5.838;2023-02-26T01:17:57;4.90;;;1.83;;
21305;SDS011;10812;51.838;5.838;2023-02-26T01:20:30;7.20;;;1.27;;
21305;SDS011;10812;51.838;5.838;2023-02-26T01:23:06;3.47;;;1.87;;
21305;SDS011;10812;51.838;5.838;2023-02-26T01:25:38;8.37;;;1.37;;
21305;SDS011;10812;51.838;5.838;2023-02-26T01:28:10;2.63;;;1.27;;
21305;SDS011;10812;51.838;5.838;2023-02-26T01:30:38;3.20;;;1.50;;
21305;SDS011;10812;51.838;5.838;2023-02-26T01:33:07;4.27;;;0.70;;
21305;SDS011;10812;51.838;5.838;2023-02-26T01:35:41;1.50;;;1.10;;
21305;SDS011;10812;51.838;5.838;2023-02-26T01:38:16;2.67;;;1.37;;
21305;SDS011;10812;51.838;5.838;2023-02-26T01:43:47;2.00;;;1.00;;
21305;SDS011;10812;51.838;5.838;2023-02-26T01:46:25;3.57;;;1.20;;
21305;SDS011;10812;51.838;5.838;2023-02-26T01:49:00;2.73;;;0.90;;
21305;SDS011;10812;51.838;5.838;2023-02-26T01:51:40;1.23;;;0.60;;
21305;SDS011;10812;51.838;5.838;2023-02-26T01:54:15;5.13;;;0.90;;
21305;SDS011;10812;51.838;5.838;2023-02-26T01:56:47;5.37;;;1.20;;
21305;SDS011;10812;51.838;5.838;2023-02-26T01:59:19;3.17;;;1.00;;
21305;SDS011;10812;51.838;5.838;2023-02-26T02:01:51;4.20;;;1.13;;
21305;SDS011;10812;51.838;5.838;2023-02-26T02:04:20;6.60;;;1.70;;
21305;SDS011;10812;51.838;5.838;2023-02-26T02:06:50;2.77;;;0.83;;
21305;SDS011;10812;51.838;5.838;2023-02-26T02:09:21;4.30;;;1.10;;
21305;SDS011;10812;51.838;5.838;2023-02-26T02:11:57;1.67;;;0.77;;
21305;SDS011;10812;51.838;5.838;2023-02-26T02:14:36;6.43;;;0.80;;
21305;SDS011;10812;51.838;5.838;2023-02-26T02:17:13;3.70;;;1.17;;
21305;SDS011;10812;51.838;5.838;2023-02-26T02:19:53;4.13;;;1.13;;
21305;SDS011;10812;51.838;5.838;2023-02-26T02:22:34;1.87;;;0.87;;
21305;SDS011;10812;51.838;5.838;2023-02-26T02:25:25;5.13;;;1.03;;
21305;SDS011;10812;51.838;5.838;2023-02-26T02:28:05;2.70;;;0.87;;
21305;SDS011;10812;51.838;5.838;2023-02-26T02:30:56;7.37;;;1.20;;
21305;SDS011;10812;51.838;5.838;2023-02-26T02:33:33;5.03;;;1.13;;
21305;SDS011;10812;51.838;5.838;2023-02-26T02:36:06;6.63;;;1.37;;
21305;SDS011;10812;51.838;5.838;2023-02-26T02:38:43;2.30;;;0.90;;
21305;SDS011;10812;51.838;5.838;2023-02-26T02:41:14;3.90;;;1.10;;
21305;SDS011;10812;51.838;5.838;2023-02-26T02:43:46;2.90;;;1.10;;
21305;SDS011;10812;51.838;5.838;2023-02-26T02:46:19;2.00;;;0.73;;
21305;SDS011;10812;51.838;5.838;2023-02-26T02:48:53;1.53;;;0.70;;
21305;SDS011;10812;51.838;5.838;2023-02-26T02:51:27;4.80;;;1.03;;
21305;SDS011;10812;51.838;5.838;2023-02-26T02:53:59;3.00;;;0.80;;
21305;SDS011;10812;51.838;5.838;2023-02-26T02:56:33;5.73;;;1.33;;
21305;SDS011;10812;51.838;5.838;2023-02-26T02:59:16;13.53;;;1.20;;
21305;SDS011;10812;51.838;5.838;2023-02-26T03:07:10;5.10;;;1.53;;
21305;SDS011;10812;51.838;5.838;2023-02-26T03:09:38;5.07;;;1.03;;
21305;SDS011;10812;51.838;5.838;2023-02-26T03:12:07;4.97;;;1.37;;
21305;SDS011;10812;51.838;5.838;2023-02-26T03:14:35;4.00;;;1.07;;
21305;SDS011;10812;51.838;5.838;2023-02-26T03:17:18;5.37;;;1.30;;
21305;SDS011;10812;51.838;5.838;2023-02-26T03:19:59;1.53;;;0.87;;
21305;SDS011;10812;51.838;5.838;2023-02-26T03:22:38;3.63;;;1.33;;
21305;SDS011;10812;51.838;5.838;2023-02-26T03:25:11;10.07;;;1.50;;
21305;SDS011;10812;51.838;5.838;2023-02-26T03:27:44;3.60;;;1.33;;
21305;SDS011;10812;51.838;5.838;2023-02-26T03:30:17;5.03;;;1.13;;
21305;SDS011;10812;51.838;5.838;2023-02-26T03:32:50;1.97;;;1.03;;
21305;SDS011;10812;51.838;5.838;2023-02-26T03:35:25;3.30;;;0.93;;
21305;SDS011;10812;51.838;5.838;2023-02-26T03:38:01;3.63;;;0.97;;
21305;SDS011;10812;51.838;5.838;2023-02-26T03:40:34;3.40;;;1.23;;
21305;SDS011;10812;51.838;5.838;2023-02-26T03:43:14;2.10;;;0.87;;
21305;SDS011;10812;51.838;5.838;2023-02-26T03:45:47;1.07;;;0.93;;
21305;SDS011;10812;51.838;5.838;2023-02-26T03:48:20;3.30;;;1.03;;
21305;SDS011;10812;51.838;5.838;2023-02-26T03:50:53;5.97;;;1.20;;
21305;SDS011;10812;51.838;5.838;2023-02-26T03:53:28;7.00;;;0.93;;
21305;SDS011;10812;51.838;5.838;2023-02-26T03:56:00;4.73;;;1.10;;
21305;SDS011;10812;51.838;5.838;2023-02-26T03:58:33;5.83;;;1.20;;
21305;SDS011;10812;51.838;5.838;2023-02-26T04:01:02;2.73;;;0.87;;
21305;SDS011;10812;51.838;5.838;2023-02-26T04:03:33;2.20;;;1.00;;
21305;SDS011;10812;51.838;5.838;2023-02-26T04:06:06;3.93;;;1.00;;
21305;SDS011;10812;51.838;5.838;2023-02-26T04:08:36;4.70;;;0.67;;
21305;SDS011;10812;51.838;5.838;2023-02-26T04:11:05;2.17;;;0.70;;
21305;SDS011;10812;51.838;5.838;2023-02-26T04:13:36;2.87;;;0.70;;
21305;SDS011;10812;51.838;5.838;2023-02-26T04:16:04;4.97;;;1.00;;
21305;SDS011;10812;51.838;5.838;2023-02-26T04:18:33;5.20;;;1.17;;
21305;SDS011;10812;51.838;5.838;2023-02-26T04:21:01;1.63;;;0.50;;
21305;SDS011;10812;51.838;5.838;2023-02-26T04:23:29;5.77;;;1.17;;
21305;SDS011;10812;51.838;5.838;2023-02-26T04:25:59;3.23;;;0.90;;
21305;SDS011;10812;51.838;5.838;2023-02-26T04:28:27;3.57;;;0.80;;
21305;SDS011;10812;51.838;5.838;2023-02-26T04:30:55;5.37;;;1.50;;
21305;SDS011;10812;51.838;5.838;2023-02-26T04:33:24;1.70;;;0.60;;
21305;SDS011;10812;51.838;5.838;2023-02-26T04:35:52;3.60;;;1.30;;
21305;SDS011;10812;51.838;5.838;2023-02-26T04:38:20;2.53;;;0.90;;
21305;SDS011;10812;51.838;5.838;2023-02-26T04:40:48;4.40;;;1.00;;
21305;SDS011;10812;51.838;5.838;2023-02-26T04:43:19;1.67;;;0.63;;
21305;SDS011;10812;51.838;5.838;2023-02-26T04:45:47;4.27;;;0.97;;
21305;SDS011;10812;51.838;5.838;2023-02-26T04:48:16;3.90;;;0.87;;
21305;SDS011;10812;51.838;5.838;2023-02-26T04:50:44;1.37;;;0.70;;
21305;SDS011;10812;51.838;5.838;2023-02-26T04:53:13;2.53;;;0.77;;
21305;SDS011;10812;51.838;5.838;2023-02-26T04:55:41;2.10;;;0.67;;
21305;SDS011;10812;51.838;5.838;2023-02-26T04:58:10;2.50;;;1.20;;
21305;SDS011;10812;51.838;5.838;2023-02-26T05:00:39;5.30;;;1.17;;
21305;SDS011;10812;51.838;5.838;2023-02-26T05:03:07;2.23;;;0.80;;
21305;SDS011;10812;51.838;5.838;2023-02-26T05:05:36;4.20;;;1.10;;
21305;SDS011;10812;51.838;5.838;2023-02-26T05:08:04;1.03;;;0.80;;
21305;SDS011;10812;51.838;5.838;2023-02-26T05:10:32;2.80;;;0.60;;
21305;SDS011;10812;51.838;5.838;2023-02-26T05:13:01;3.10;;;0.80;;
21305;SDS011;10812;51.838;5.838;2023-02-26T05:15:29;5.20;;;0.97;;
21305;SDS011;10812;51.838;5.838;2023-02-26T05:17:59;4.10;;;1.03;;
21305;SDS011;10812;51.838;5.838;2023-02-26T05:20:27;2.23;;;0.43;;
21305;SDS011;10812;51.838;5.838;2023-02-26T05:22:55;3.30;;;0.87;;
21305;SDS011;10812;51.838;5.838;2023-02-26T05:25:23;1.93;;;0.50;;
21305;SDS011;10812;51.838;5.838;2023-02-26T05:27:51;0.93;;;0.33;;
21305;SDS011;10812;51.838;5.838;2023-02-26T05:30:21;5.10;;;0.83;;
21305;SDS011;10812;51.838;5.838;2023-02-26T05:32:49;3.63;;;0.70;;
21305;SDS011;10812;51.838;5.838;2023-02-26T05:35:19;5.63;;;0.80;;
21305;SDS011;10812;51.838;5.838;2023-02-26T05:37:47;4.50;;;0.70;;
21305;SDS011;10812;51.838;5.838;2023-02-26T05:40:15;3.07;;;0.70;;
21305;SDS011;10812;51.838;5.838;2023-02-26T05:42:43;2.00;;;0.50;;
21305;SDS011;10812;51.838;5.838;2023-02-26T05:45:12;4.77;;;0.67;;
21305;SDS011;10812;51.838;5.838;2023-02-26T05:47:40;6.07;;;1.10;;
21305;SDS011;10812;51.838;5.838;2023-02-26T05:50:09;3.23;;;0.73;;
21305;SDS011;10812;51.838;5.838;2023-02-26T05:52:39;5.30;;;1.03;;
21305;SDS011;10812;51.838;5.838;2023-02-26T05:55:08;2.20;;;0.80;;
21305;SDS011;10812;51.838;5.838;2023-02-26T05:57:36;2.70;;;0.70;;
21305;SDS011;10812;51.838;5.838;2023-02-26T06:00:05;5.50;;;0.80;;
21305;SDS011;10812;51.838;5.838;2023-02-26T06:02:34;1.77;;;0.60;;
21305;SDS011;10812;51.838;5.838;2023-02-26T06:05:03;2.67;;;0.70;;
21305;SDS011;10812;51.838;5.838;2023-02-26T06:07:32;0.90;;;0.80;;
21305;SDS011;10812;51.838;5.838;2023-02-26T06:10:01;4.03;;;0.93;;
21305;SDS011;10812;51.838;5.838;2023-02-26T06:12:30;2.80;;;0.87;;
21305;SDS011;10812;51.838;5.838;2023-02-26T06:14:58;7.33;;;1.00;;
21305;SDS011;10812;51.838;5.838;2023-02-26T06:17:26;4.50;;;0.50;;
21305;SDS011;10812;51.838;5.838;2023-02-26T06:19:54;4.03;;;1.03;;
21305;SDS011;10812;51.838;5.838;2023-02-26T06:22:22;2.07;;;0.70;;
21305;SDS011;10812;51.838;5.838;2023-02-26T06:24:50;1.07;;;0.43;;
21305;SDS011;10812;51.838;5.838;2023-02-26T06:27:21;3.83;;;1.03;;
21305;SDS011;10812;51.838;5.838;2023-02-26T06:29:50;1.10;;;0.23;;
21305;SDS011;10812;51.838;5.838;2023-02-26T06:32:18;3.20;;;0.60;;
21305;SDS011;10812;51.838;5.838;2023-02-26T06:34:46;2.90;;;0.70;;
21305;SDS011;10812;51.838;5.838;2023-02-26T06:37:14;2.00;;;0.63;;
21305;SDS011;10812;51.838;5.838;2023-02-26T06:39:42;1.40;;;0.57;;
21305;SDS011;10812;51.838;5.838;2023-02-26T06:42:11;5.57;;;0.80;;
21305;SDS011;10812;51.838;5.838;2023-02-26T06:44:40;3.17;;;0.77;;
21305;SDS011;10812;51.838;5.838;2023-02-26T06:47:09;2.60;;;0.60;;
21305;SDS011;10812;51.838;5.838;2023-02-26T06:49:37;1.77;;;0.70;;
21305;SDS011;10812;51.838;5.838;2023-02-26T06:52:05;2.67;;;0.60;;
21305;SDS011;10812;51.838;5.838;2023-02-26T06:54:33;2.93;;;0.70;;
21305;SDS011;10812;51.838;5.838;2023-02-26T06:57:01;1.63;;;0.50;;
21305;SDS011;10812;51.838;5.838;2023-02-26T06:59:29;2.13;;;0.60;;
21305;SDS011;10812;51.838;5.838;2023-02-26T07:01:59;3.00;;;0.67;;
21305;SDS011;10812;51.838;5.838;2023-02-26T07:04:27;2.50;;;0.60;;
21305;SDS011;10812;51.838;5.838;2023-02-26T07:06:55;3.57;;;0.93;;
21305;SDS011;10812;51.838;5.838;2023-02-26T07:09:25;1.87;;;0.97;;
21305;SDS011;10812;51.838;5.838;2023-02-26T07:11:53;1.57;;;0.50;;
21305;SDS011;10812;51.838;5.838;2023-02-26T07:14:21;3.03;;;1.03;;
21305;SDS011;10812;51.838;5.838;2023-02-26T07:16:49;3.80;;;0.80;;
21305;SDS011;10812;51.838;5.838;2023-02-26T07:19:19;2.73;;;0.60;;
21305;SDS011;10812;51.838;5.838;2023-02-26T07:21:47;6.30;;;0.63;;
21305;SDS011;10812;51.838;5.838;2023-02-26T07:24:15;2.53;;;1.03;;
21305;SDS011;10812;51.838;5.838;2023-02-26T07:26:44;2.43;;;0.67;;
21305;SDS011;10812;51.838;5.838;2023-02-26T07:29:12;0.87;;;0.43;;
21305;SDS011;10812;51.838;5.838;2023-02-26T07:31:40;2.30;;;0.53;;
21305;SDS011;10812;51.838;5.838;2023-02-26T07:34:08;4.87;;;0.63;;
21305;SDS011;10812;51.838;5.838;2023-02-26T07:36:38;4.40;;;0.77;;
21305;SDS011;10812;51.838;5.838;2023-02-26T07:39:06;1.37;;;0.70;;
21305;SDS011;10812;51.838;5.838;2023-02-26T07:41:34;2.20;;;0.50;;
21305;SDS011;10812;51.838;5.838;2023-02-26T07:44:02;2.37;;;0.80;;
21305;SDS011;10812;51.838;5.838;2023-02-26T07:46:30;0.57;;;0.50;;
21305;SDS011;10812;51.838;5.838;2023-02-26T07:48:59;0.73;;;0.50;;
21305;SDS011;10812;51.838;5.838;2023-02-26T07:51:27;3.63;;;1.00;;
21305;SDS011;10812;51.838;5.838;2023-02-26T07:53:59;3.90;;;0.60;;
21305;SDS011;10812;51.838;5.838;2023-02-26T07:56:28;1.07;;;0.37;;
21305;SDS011;10812;51.838;5.838;2023-02-26T07:58:57;4.90;;;0.83;;
21305;SDS011;10812;51.838;5.838;2023-02-26T08:01:25;1.53;;;0.40;;
21305;SDS011;10812;51.838;5.838;2023-02-26T08:03:53;5.30;;;1.27;;
21305;SDS011;10812;51.838;5.838;2023-02-26T08:06:21;3.77;;;0.70;;
21305;SDS011;10812;51.838;5.838;2023-02-26T08:08:50;3.10;;;0.80;;
21305;SDS011;10812;51.838;5.838;2023-02-26T08:11:19;4.70;;;0.60;;
21305;SDS011;10812;51.838;5.838;2023-02-26T08:13:47;3.03;;;1.20;;
21305;SDS011;10812;51.838;5.838;2023-02-26T08:16:15;1.60;;;0.50;;
21305;SDS011;10812;51.838;5.838;2023-02-26T08:18:44;1.40;;;0.30;;
21305;SDS011;10812;51.838;5.838;2023-02-26T08:21:12;2.00;;;0.70;;
21305;SDS011;10812;51.838;5.838;2023-02-26T08:23:40;2.63;;;0.70;;
21305;SDS011;10812;51.838;5.838;2023-02-26T08:26:09;3.20;;;0.60;;
21305;SDS011;10812;51.838;5.838;2023-02-26T08:28:40;2.93;;;0.40;;
21305;SDS011;10812;51.838;5.838;2023-02-26T08:31:08;1.30;;;0.50;;
21305;SDS011;10812;51.838;5.838;2023-02-26T08:33:36;3.50;;;0.97;;
21305;SDS011;10812;51.838;5.838;2023-02-26T08:36:05;3.03;;;0.63;;
21305;SDS011;10812;51.838;5.838;2023-02-26T08:38:34;3.83;;;0.70;;
21305;SDS011;10812;51.838;5.838;2023-02-26T08:41:02;1.43;;;0.53;;
21305;SDS011;10812;51.838;5.838;2023-02-26T08:43:31;1.60;;;0.67;;
21305;SDS011;10812;51.838;5.838;2023-02-26T08:46:00;2.03;;;0.70;;
21305;SDS011;10812;51.838;5.838;2023-02-26T08:48:28;1.60;;;0.50;;
21305;SDS011;10812;51.838;5.838;2023-02-26T08:51:04;2.77;;;0.63;;
21305;SDS011;10812;51.838;5.838;2023-02-26T08:53:32;2.00;;;0.50;;
21305;SDS011;10812;51.838;5.838;2023-02-26T08:56:00;1.57;;;0.50;;
21305;SDS011;10812;51.838;5.838;2023-02-26T08:58:28;1.40;;;0.40;;
21305;SDS011;10812;51.838;5.838;2023-02-26T09:00:57;1.90;;;0.70;;
21305;SDS011;10812;51.838;5.838;2023-02-26T09:03:27;3.07;;;0.93;;
21305;SDS011;10812;51.838;5.838;2023-02-26T09:05:55;1.23;;;0.70;;
21305;SDS011;10812;51.838;5.838;2023-02-26T09:08:23;3.30;;;0.87;;
21305;SDS011;10812;51.838;5.838;2023-02-26T09:10:51;3.40;;;0.60;;
21305;SDS011;10812;51.838;5.838;2023-02-26T09:13:19;1.27;;;0.47;;
21305;SDS011;10812;51.838;5.838;2023-02-26T09:15:48;4.27;;;0.53;;
21305;SDS011;10812;51.838;5.838;2023-02-26T09:18:16;3.03;;;0.73;;
21305;SDS011;10812;51.838;5.838;2023-02-26T09:20:46;2.03;;;0.70;;
21305;SDS011;10812;51.838;5.838;2023-02-26T09:23:14;1.97;;;0.77;;
21305;SDS011;10812;51.838;5.838;2023-02-26T09:25:42;4.10;;;0.67;;
21305;SDS011;10812;51.838;5.838;2023-02-26T09:28:10;2.77;;;0.50;;
21305;SDS011;10812;51.838;5.838;2023-02-26T09:30:38;2.83;;;0.73;;
21305;SDS011;10812;51.838;5.838;2023-02-26T09:33:07;3.13;;;0.50;;
21305;SDS011;10812;51.838;5.838;2023-02-26T09:35:35;2.53;;;0.80;;
21305;SDS011;10812;51.838;5.838;2023-02-26T09:38:05;5.13;;;1.03;;
21305;SDS011;10812;51.838;5.838;2023-02-26T09:40:36;3.73;;;0.60;;
21305;SDS011;10812;51.838;5.838;2023-02-26T09:43:17;2.37;;;0.63;;
21305;SDS011;10812;51.838;5.838;2023-02-26T09:46:09;1.63;;;0.40;;
21305;SDS011;10812;51.838;5.838;2023-02-26T09:48:47;2.73;;;0.57;;
21305;SDS011;10812;51.838;5.838;2023-02-26T09:51:20;1.77;;;0.70;;
21305;SDS011;10812;51.838;5.838;2023-02-26T09:53:51;2.90;;;0.60;;
21305;SDS011;10812;51.838;5.838;2023-02-26T09:56:20;2.53;;;0.77;;
21305;SDS011;10812;51.838;5.838;2023-02-26T09:58:51;4.80;;;0.90;;
21305;SDS011;10812;51.838;5.838;2023-02-26T10:01:22;1.20;;;0.60;;
21305;SDS011;10812;51.838;5.838;2023-02-26T10:04:05;1.97;;;0.60;;
21305;SDS011;10812;51.838;5.838;2023-02-26T10:06:43;1.47;;;0.40;;
21305;SDS011;10812;51.838;5.838;2023-02-26T10:09:24;2.07;;;0.63;;
21305;SDS011;10812;51.838;5.838;2023-02-26T10:12:01;1.80;;;1.03;;
21305;SDS011;10812;51.838;5.838;2023-02-26T10:14:32;1.37;;;0.37;;
21305;SDS011;10812;51.838;5.838;2023-02-26T10:17:04;3.90;;;0.60;;
21305;SDS011;10812;51.838;5.838;2023-02-26T10:19:42;0.50;;;0.50;;
21305;SDS011;10812;51.838;5.838;2023-02-26T10:22:15;5.07;;;0.60;;
21305;SDS011;10812;51.838;5.838;2023-02-26T10:24:50;1.90;;;0.67;;
21305;SDS011;10812;51.838;5.838;2023-02-26T10:27:24;1.80;;;0.50;;
21305;SDS011;10812;51.838;5.838;2023-02-26T10:30:04;0.50;;;0.40;;
21305;SDS011;10812;51.838;5.838;2023-02-26T10:32:40;1.57;;;0.30;;
21305;SDS011;10812;51.838;5.838;2023-02-26T10:35:16;0.50;;;0.30;;
21305;SDS011;10812;51.838;5.838;2023-02-26T10:37:47;0.87;;;0.30;;
21305;SDS011;10812;51.838;5.838;2023-02-26T10:40:22;2.00;;;0.43;;
21305;SDS011;10812;51.838;5.838;2023-02-26T10:42:55;0.80;;;0.33;;
21305;SDS011;10812;51.838;5.838;2023-02-26T10:45:29;1.50;;;0.40;;
21305;SDS011;10812;51.838;5.838;2023-02-26T10:48:06;0.70;;;0.40;;
21305;SDS011;10812;51.838;5.838;2023-02-26T10:50:46;0.97;;;0.30;;
21305;SDS011;10812;51.838;5.838;2023-02-26T10:53:17;1.10;;;0.40;;
21305;SDS011;10812;51.838;5.838;2023-02-26T10:55:48;1.07;;;0.43;;
21305;SDS011;10812;51.838;5.838;2023-02-26T10:58:21;1.67;;;0.43;;
21305;SDS011;10812;51.838;5.838;2023-02-26T11:00:51;2.13;;;0.37;;
21305;SDS011;10812;51.838;5.838;2023-02-26T11:03:24;2.10;;;0.57;;
21305;SDS011;10812;51.838;5.838;2023-02-26T11:05:58;1.40;;;0.20;;
21305;SDS011;10812;51.838;5.838;2023-02-26T11:08:29;3.20;;;0.50;;
21305;SDS011;10812;51.838;5.838;2023-02-26T11:11:02;1.17;;;0.40;;
21305;SDS011;10812;51.838;5.838;2023-02-26T11:13:32;2.33;;;0.50;;
21305;SDS011;10812;51.838;5.838;2023-02-26T11:16:04;3.10;;;0.60;;
21305;SDS011;10812;51.838;5.838;2023-02-26T11:18:37;1.20;;;0.67;;
21305;SDS011;10812;51.838;5.838;2023-02-26T11:21:07;2.87;;;0.57;;
21305;SDS011;10812;51.838;5.838;2023-02-26T11:23:42;2.93;;;0.60;;
21305;SDS011;10812;51.838;5.838;2023-02-26T11:26:15;0.97;;;0.30;;
21305;SDS011;10812;51.838;5.838;2023-02-26T11:28:45;0.53;;;0.30;;
21305;SDS011;10812;51.838;5.838;2023-02-26T11:31:16;1.20;;;0.53;;
21305;SDS011;10812;51.838;5.838;2023-02-26T11:33:47;1.43;;;0.20;;
21305;SDS011;10812;51.838;5.838;2023-02-26T11:36:17;0.67;;;0.40;;
21305;SDS011;10812;51.838;5.838;2023-02-26T11:38:51;0.83;;;0.30;;
21305;SDS011;10812;51.838;5.838;2023-02-26T11:41:24;2.43;;;1.20;;
21305;SDS011;10812;51.838;5.838;2023-02-26T11:43:57;8.03;;;1.07;;
21305;SDS011;10812;51.838;5.838;2023-02-26T11:46:27;1.13;;;0.40;;
21305;SDS011;10812;51.838;5.838;2023-02-26T11:48:57;1.50;;;0.57;;
21305;SDS011;10812;51.838;5.838;2023-02-26T11:51:27;1.10;;;0.40;;
21305;SDS011;10812;51.838;5.838;2023-02-26T11:53:56;2.33;;;0.43;;
21305;SDS011;10812;51.838;5.838;2023-02-26T11:56:30;0.50;;;0.23;;
21305;SDS011;10812;51.838;5.838;2023-02-26T11:59:04;2.00;;;0.60;;
21305;SDS011;10812;51.838;5.838;2023-02-26T12:01:34;2.90;;;0.50;;
21305;SDS011;10812;51.838;5.838;2023-02-26T12:04:04;1.47;;;0.30;;
21305;SDS011;10812;51.838;5.838;2023-02-26T12:06:37;1.03;;;0.33;;
21305;SDS011;10812;51.838;5.838;2023-02-26T12:09:07;4.40;;;0.90;;
21305;SDS011;10812;51.838;5.838;2023-02-26T12:14:50;1.10;;;0.30;;
21305;SDS011;10812;51.838;5.838;2023-02-26T12:17:31;2.87;;;0.50;;
21305;SDS011;10812;51.838;5.838;2023-02-26T12:20:13;2.10;;;0.60;;
21305;SDS011;10812;51.838;5.838;2023-02-26T12:22:50;2.13;;;0.70;;
21305;SDS011;10812;51.838;5.838;2023-02-26T12:25:45;2.30;;;0.70;;
21305;SDS011;10812;51.838;5.838;2023-02-26T12:37:46;2.60;;;0.50;;
21305;SDS011;10812;51.838;5.838;2023-02-26T12:40:24;0.63;;;0.30;;
21305;SDS011;10812;51.838;5.838;2023-02-26T12:43:14;1.37;;;0.40;;
21305;SDS011;10812;51.838;5.838;2023-02-26T12:45:52;2.50;;;0.77;;
21305;SDS011;10812;51.838;5.838;2023-02-26T12:48:37;0.43;;;0.27;;
21305;SDS011;10812;51.838;5.838;2023-02-26T12:51:33;0.87;;;0.50;;
21305;SDS011;10812;51.838;5.838;2023-02-26T12:54:27;3.63;;;1.03;;
21305;SDS011;10812;51.838;5.838;2023-02-26T12:57:29;0.83;;;0.63;;
21305;SDS011;10812;51.838;5.838;2023-02-26T13:06:21;0.90;;;0.40;;
21305;SDS011;10812;51.838;5.838;2023-02-26T13:09:14;1.23;;;0.50;;
21305;SDS011;10812;51.838;5.838;2023-02-26T13:11:55;2.20;;;0.43;;
21305;SDS011;10812;51.838;5.838;2023-02-26T13:14:38;2.37;;;0.57;;
21305;SDS011;10812;51.838;5.838;2023-02-26T13:17:17;0.67;;;0.43;;
21305;SDS011;10812;51.838;5.838;2023-02-26T13:19:54;1.60;;;0.67;;
21305;SDS011;10812;51.838;5.838;2023-02-26T13:22:26;0.90;;;0.40;;
21305;SDS011;10812;51.838;5.838;2023-02-26T13:24:58;1.60;;;0.50;;
21305;SDS011;10812;51.838;5.838;2023-02-26T13:27:30;0.93;;;0.60;;
21305;SDS011;10812;51.838;5.838;2023-02-26T13:30:05;0.80;;;0.30;;
21305;SDS011;10812;51.838;5.838;2023-02-26T13:32:44;2.93;;;0.43;;
21305;SDS011;10812;51.838;5.838;2023-02-26T13:35:18;1.60;;;0.70;;
21305;SDS011;10812;51.838;5.838;2023-02-26T13:37:49;1.13;;;0.40;;
21305;SDS011;10812;51.838;5.838;2023-02-26T13:40:28;1.80;;;0.80;;
21305;SDS011;10812;51.838;5.838;2023-02-26T13:43:22;4.27;;;0.50;;
21305;SDS011;10812;51.838;5.838;2023-02-26T13:46:01;1.07;;;0.50;;
21305;SDS011;10812;51.838;5.838;2023-02-26T13:48:40;1.53;;;0.60;;
21305;SDS011;10812;51.838;5.838;2023-02-26T13:51:14;3.27;;;0.70;;
21305;SDS011;10812;51.838;5.838;2023-02-26T13:53:58;0.40;;;0.37;;
21305;SDS011;10812;51.838;5.838;2023-02-26T13:56:42;1.40;;;0.53;;
21305;SDS011;10812;51.838;5.838;2023-02-26T13:59:28;2.73;;;0.50;;
21305;SDS011;10812;51.838;5.838;2023-02-26T14:02:15;1.67;;;1.00;;
21305;SDS011;10812;51.838;5.838;2023-02-26T14:05:23;0.90;;;0.50;;
21305;SDS011;10812;51.838;5.838;2023-02-26T14:08:17;1.13;;;0.50;;
21305;SDS011;10812;51.838;5.838;2023-02-26T14:10:58;0.30;;;0.30;;
21305;SDS011;10812;51.838;5.838;2023-02-26T14:13:33;0.80;;;0.50;;
21305;SDS011;10812;51.838;5.838;2023-02-26T14:16:08;0.80;;;0.60;;
21305;SDS011;10812;51.838;5.838;2023-02-26T14:18:48;1.17;;;0.40;;
21305;SDS011;10812;51.838;5.838;2023-02-26T14:21:37;1.53;;;0.47;;
21305;SDS011;10812;51.838;5.838;2023-02-26T14:24:15;0.70;;;0.43;;
21305;SDS011;10812;51.838;5.838;2023-02-26T14:26:47;0.87;;;0.50;;
21305;SDS011;10812;51.838;5.838;2023-02-26T14:29:21;2.50;;;0.73;;
21305;SDS011;10812;51.838;5.838;2023-02-26T14:32:12;1.73;;;0.60;;
21305;SDS011;10812;51.838;5.838;2023-02-26T14:34:46;1.87;;;0.67;;
21305;SDS011;10812;51.838;5.838;2023-02-26T14:37:18;2.10;;;0.67;;
21305;SDS011;10812;51.838;5.838;2023-02-26T14:39:53;0.83;;;0.50;;
21305;SDS011;10812;51.838;5.838;2023-02-26T14:42:26;1.93;;;0.30;;
21305;SDS011;10812;51.838;5.838;2023-02-26T14:45:02;1.63;;;0.53;;
21305;SDS011;10812;51.838;5.838;2023-02-26T14:47:36;0.60;;;0.50;;
21305;SDS011;10812;51.838;5.838;2023-02-26T14:50:05;0.40;;;0.40;;
21305;SDS011;10812;51.838;5.838;2023-02-26T14:52:38;1.17;;;0.70;;
21305;SDS011;10812;51.838;5.838;2023-02-26T14:55:26;2.00;;;0.60;;
21305;SDS011;10812;51.838;5.838;2023-02-26T14:58:15;1.33;;;0.50;;
21305;SDS011;10812;51.838;5.838;2023-02-26T15:00:57;0.50;;;0.33;;
21305;SDS011;10812;51.838;5.838;2023-02-26T15:03:51;2.13;;;1.13;;
21305;SDS011;10812;51.838;5.838;2023-02-26T15:06:43;0.70;;;0.30;;
21305;SDS011;10812;51.838;5.838;2023-02-26T15:09:18;0.77;;;0.57;;
21305;SDS011;10812;51.838;5.838;2023-02-26T15:12:03;2.20;;;0.50;;
21305;SDS011;10812;51.838;5.838;2023-02-26T15:14:43;1.47;;;0.50;;
21305;SDS011;10812;51.838;5.838;2023-02-26T15:17:30;2.03;;;0.60;;
21305;SDS011;10812;51.838;5.838;2023-02-26T15:20:09;1.53;;;0.50;;
21305;SDS011;10812;51.838;5.838;2023-02-26T15:22:52;1.20;;;0.57;;
21305;SDS011;10812;51.838;5.838;2023-02-26T15:25:33;1.57;;;0.47;;
21305;SDS011;10812;51.838;5.838;2023-02-26T15:28:06;0.50;;;0.37;;
21305;SDS011;10812;51.838;5.838;2023-02-26T15:30:42;1.20;;;0.40;;
21305;SDS011;10812;51.838;5.838;2023-02-26T15:33:14;1.53;;;0.30;;
21305;SDS011;10812;51.838;5.838;2023-02-26T15:35:47;1.13;;;0.33;;
21305;SDS011;10812;51.838;5.838;2023-02-26T15:38:17;2.90;;;0.47;;
21305;SDS011;10812;51.838;5.838;2023-02-26T15:40:45;0.63;;;0.30;;
21305;SDS011;10812;51.838;5.838;2023-02-26T15:43:19;0.63;;;0.30;;
21305;SDS011;10812;51.838;5.838;2023-02-26T15:45:50;1.00;;;0.60;;
21305;SDS011;10812;51.838;5.838;2023-02-26T15:48:21;1.87;;;0.70;;
21305;SDS011;10812;51.838;5.838;2023-02-26T15:50:55;0.70;;;0.40;;